sensor_id;sensor_type;location;lat;lon;timestamp;P1;P2;P0
49914;PMS5003;35806;47.958;13.158;2023-02-28T00:00:36;25;22;
49914;PMS5003;35806;47.958;13.158;2023-02-28T00:03:04;27;20;
49914;PMS5003;35806;47.958;13.158;2023-02-28T00:05:32;23;23;
49914;PMS5003;35806;47.958;13.158;2023-02-28T00:08:00;26;24;
49914;PMS5003;35806;47.958;13.158;2023-02-28T00:10:28;30;24;
49914;PMS5003;35806;47.958;13.158;2023-02-28T00:12:59;22;20;
49914;PMS5003;35806;47.958;13.158;2023-02-28T00:15:29;26;21;
49914;PMS5003;35806;47.958;13.158;2023-02-28T00:17:57;30;25;
49914;PMS5003;35806;47.958;13.158;2023-02-28T00:20:24;26;24;
49914;PMS5003;35806;47.958;13.158;2023-02-28T00:22:52;25;25;
49914;PMS5003;35806;47.958;13.158;2023-02-28T00:25:21;28;24;
49914;PMS5003;35806;47.958;13.158;2023-02-28T00:27:50;33;27;
49914;PMS5003;35806;47.958;13.158;2023-02-28T00:30:19;26;25;
49914;PMS5003;35806;47.958;13.158;2023-02-28T00:32:48;30;27;
49914;PMS5003;35806;47.958;13.158;2023-02-28T00:35:17;25;21;
49914;PMS5003;35806;47.958;13.158;2023-02-28T00:37:44;33;29;
49914;PMS5003;35806;47.958;13.158;2023-02-28T00:40:11;35;31;
49914;PMS5003;35806;47.958;13.158;2023-02-28T00:42:39;39;29;
49914;PMS5003;35806;47.958;13.158;2023-02-28T00:45:07;31;27;
49914;PMS5003;35806;47.958;13.158;2023-02-28T00:47:34;31;30;
49914;PMS5003;35806;47.958;13.158;2023-02-28T00:50:01;29;26;
49914;PMS5003;35806;47.958;13.158;2023-02-28T00:52:29;36;29;
49914;PMS5003;35806;47.958;13.158;2023-02-28T00:54:57;32;25;
49914;PMS5003;35806;47.958;13.158;2023-02-28T00:57:24;37;29;
49914;PMS5003;35806;47.958;13.158;2023-02-28T00:59:51;42;36;
49914;PMS5003;35806;47.958;13.158;2023-02-28T01:02:19;43;35;
49914;PMS5003;35806;47.958;13.158;2023-02-28T01:04:46;35;30;
49914;PMS5003;35806;47.958;13.158;2023-02-28T01:07:13;36;35;
49914;PMS5003;35806;47.958;13.158;2023-02-28T01:09:41;43;37;
49914;PMS5003;35806;47.958;13.158;2023-02-28T01:12:08;41;36;
49914;PMS5003;35806;47.958;13.158;2023-02-28T01:14:36;36;35;
49914;PMS5003;35806;47.958;13.158;2023-02-28T01:17:03;33;30;
49914;PMS5003;35806;47.958;13.158;2023-02-28T01:19:30;36;31;
49914;PMS5003;35806;47.958;13.158;2023-02-28T01:22:00;36;32;
49914;PMS5003;35806;47.958;13.158;2023-02-28T01:24:27;35;35;
49914;PMS5003;35806;47.958;13.158;2023-02-28T01:26:55;42;38;
49914;PMS5003;35806;47.958;13.158;2023-02-28T01:29:22;47;42;
49914;PMS5003;35806;47.958;13.158;2023-02-28T01:31:49;37;30;
49914;PMS5003;35806;47.958;13.158;2023-02-28T01:34:16;41;32;
49914;PMS5003;35806;47.958;13.158;2023-02-28T01:36:43;48;41;
49914;PMS5003;35806;47.958;13.158;2023-02-28T01:39:11;49;33;
49914;PMS5003;35806;47.958;13.158;2023-02-28T01:41:38;42;33;
49914;PMS5003;35806;47.958;13.158;2023-02-28T01:44:06;49;41;
49914;PMS5003;35806;47.958;13.158;2023-02-28T01:47:21;44;36;
49914;PMS5003;35806;47.958;13.158;2023-02-28T01:49:50;44;43;
49914;PMS5003;35806;47.958;13.158;2023-02-28T01:52:18;47;38;
49914;PMS5003;35806;47.958;13.158;2023-02-28T01:54:53;58;48;
49914;PMS5003;35806;47.958;13.158;2023-02-28T01:57:24;55;48;
49914;PMS5003;35806;47.958;13.158;2023-02-28T01:59:56;82;72;
49914;PMS5003;35806;47.958;13.158;2023-02-28T02:15:29;70;58;
49914;PMS5003;35806;47.958;13.158;2023-02-28T02:18:07;56;51;
49914;PMS5003;35806;47.958;13.158;2023-02-28T02:20:53;60;55;
49914;PMS5003;35806;47.958;13.158;2023-02-28T02:23:50;50;46;
49914;PMS5003;35806;47.958;13.158;2023-02-28T02:26:35;65;57;
49914;PMS5003;35806;47.958;13.158;2023-02-28T02:29:30;65;53;
49914;PMS5003;35806;47.958;13.158;2023-02-28T02:32:15;80;60;
49914;PMS5003;35806;47.958;13.158;2023-02-28T02:34:59;82;74;
49914;PMS5003;35806;47.958;13.158;2023-02-28T02:37:36;62;57;
49914;PMS5003;35806;47.958;13.158;2023-02-28T02:40:09;82;69;
49914;PMS5003;35806;47.958;13.158;2023-02-28T02:42:41;76;67;
49914;PMS5003;35806;47.958;13.158;2023-02-28T02:45:14;73;56;
49914;PMS5003;35806;47.958;13.158;2023-02-28T02:47:45;59;54;
49914;PMS5003;35806;47.958;13.158;2023-02-28T02:50:15;61;53;
49914;PMS5003;35806;47.958;13.158;2023-02-28T02:52:47;65;52;
49914;PMS5003;35806;47.958;13.158;2023-02-28T02:55:20;61;51;
49914;PMS5003;35806;47.958;13.158;2023-02-28T02:57:49;53;47;
49914;PMS5003;35806;47.958;13.158;2023-02-28T03:00:21;46;39;
49914;PMS5003;35806;47.958;13.158;2023-02-28T03:02:52;54;46;
49914;PMS5003;35806;47.958;13.158;2023-02-28T03:05:23;46;44;
49914;PMS5003;35806;47.958;13.158;2023-02-28T03:07:53;51;42;
49914;PMS5003;35806;47.958;13.158;2023-02-28T03:10:30;47;39;
49914;PMS5003;35806;47.958;13.158;2023-02-28T03:13:03;58;50;
49914;PMS5003;35806;47.958;13.158;2023-02-28T03:15:48;46;43;
49914;PMS5003;35806;47.958;13.158;2023-02-28T03:18:24;60;51;
49914;PMS5003;35806;47.958;13.158;2023-02-28T03:20:59;48;44;
49914;PMS5003;35806;47.958;13.158;2023-02-28T03:23:35;57;52;
49914;PMS5003;35806;47.958;13.158;2023-02-28T03:26:10;58;51;
49914;PMS5003;35806;47.958;13.158;2023-02-28T03:28:45;51;47;
49914;PMS5003;35806;47.958;13.158;2023-02-28T03:31:20;69;54;
49914;PMS5003;35806;47.958;13.158;2023-02-28T03:33:55;48;48;
49914;PMS5003;35806;47.958;13.158;2023-02-28T03:36:29;51;45;
49914;PMS5003;35806;47.958;13.158;2023-02-28T03:39:01;60;52;
49914;PMS5003;35806;47.958;13.158;2023-02-28T03:41:32;47;44;
49914;PMS5003;35806;47.958;13.158;2023-02-28T03:44:04;56;47;
49914;PMS5003;35806;47.958;13.158;2023-02-28T03:46:37;63;57;
49914;PMS5003;35806;47.958;13.158;2023-02-28T03:49:09;55;48;
49914;PMS5003;35806;47.958;13.158;2023-02-28T03:51:42;44;42;
49914;PMS5003;35806;47.958;13.158;2023-02-28T03:54:12;68;58;
49914;PMS5003;35806;47.958;13.158;2023-02-28T03:56:45;94;79;
49914;PMS5003;35806;47.958;13.158;2023-02-28T03:59:18;99;87;
49914;PMS5003;35806;47.958;13.158;2023-02-28T04:01:52;77;66;
49914;PMS5003;35806;47.958;13.158;2023-02-28T04:04:20;59;46;
49914;PMS5003;35806;47.958;13.158;2023-02-28T04:06:49;56;52;
49914;PMS5003;35806;47.958;13.158;2023-02-28T04:09:18;69;56;
49914;PMS5003;35806;47.958;13.158;2023-02-28T04:11:47;58;54;
49914;PMS5003;35806;47.958;13.158;2023-02-28T04:14:17;60;45;
49914;PMS5003;35806;47.958;13.158;2023-02-28T04:16:45;58;51;
49914;PMS5003;35806;47.958;13.158;2023-02-28T04:19:13;64;53;
49914;PMS5003;35806;47.958;13.158;2023-02-28T04:21:41;59;42;
49914;PMS5003;35806;47.958;13.158;2023-02-28T04:24:10;66;54;
49914;PMS5003;35806;47.958;13.158;2023-02-28T04:26:40;76;59;
49914;PMS5003;35806;47.958;13.158;2023-02-28T04:29:09;64;54;
49914;PMS5003;35806;47.958;13.158;2023-02-28T04:31:38;60;51;
49914;PMS5003;35806;47.958;13.158;2023-02-28T04:34:06;57;54;
49914;PMS5003;35806;47.958;13.158;2023-02-28T04:36:34;64;56;
49914;PMS5003;35806;47.958;13.158;2023-02-28T04:39:01;65;58;
49914;PMS5003;35806;47.958;13.158;2023-02-28T04:41:28;66;60;
49914;PMS5003;35806;47.958;13.158;2023-02-28T04:43:56;83;69;
49914;PMS5003;35806;47.958;13.158;2023-02-28T04:46:23;61;52;
49914;PMS5003;35806;47.958;13.158;2023-02-28T04:48:51;67;60;
49914;PMS5003;35806;47.958;13.158;2023-02-28T04:51:23;69;57;
49914;PMS5003;35806;47.958;13.158;2023-02-28T04:53:51;59;51;
49914;PMS5003;35806;47.958;13.158;2023-02-28T04:56:19;68;57;
49914;PMS5003;35806;47.958;13.158;2023-02-28T04:58:47;62;57;
49914;PMS5003;35806;47.958;13.158;2023-02-28T05:01:17;70;61;
49914;PMS5003;35806;47.958;13.158;2023-02-28T05:03:46;67;54;
49914;PMS5003;35806;47.958;13.158;2023-02-28T05:06:15;62;51;
49914;PMS5003;35806;47.958;13.158;2023-02-28T05:08:43;68;53;
49914;PMS5003;35806;47.958;13.158;2023-02-28T05:11:13;75;65;
49914;PMS5003;35806;47.958;13.158;2023-02-28T05:13:43;70;60;
49914;PMS5003;35806;47.958;13.158;2023-02-28T05:16:11;68;57;
49914;PMS5003;35806;47.958;13.158;2023-02-28T05:18:38;67;58;
49914;PMS5003;35806;47.958;13.158;2023-02-28T05:21:05;73;58;
49914;PMS5003;35806;47.958;13.158;2023-02-28T05:23:47;69;57;
49914;PMS5003;35806;47.958;13.158;2023-02-28T05:26:14;77;67;
49914;PMS5003;35806;47.958;13.158;2023-02-28T05:28:47;70;57;
49914;PMS5003;35806;47.958;13.158;2023-02-28T05:31:14;63;55;
49914;PMS5003;35806;47.958;13.158;2023-02-28T05:33:42;64;60;
49914;PMS5003;35806;47.958;13.158;2023-02-28T05:36:09;77;66;
49914;PMS5003;35806;47.958;13.158;2023-02-28T05:38:37;72;60;
49914;PMS5003;35806;47.958;13.158;2023-02-28T05:41:06;77;65;
49914;PMS5003;35806;47.958;13.158;2023-02-28T05:43:34;65;61;
49914;PMS5003;35806;47.958;13.158;2023-02-28T05:46:27;67;59;
49914;PMS5003;35806;47.958;13.158;2023-02-28T05:48:54;58;51;
49914;PMS5003;35806;47.958;13.158;2023-02-28T05:51:21;69;64;
49914;PMS5003;35806;47.958;13.158;2023-02-28T05:53:48;67;63;
49914;PMS5003;35806;47.958;13.158;2023-02-28T05:56:15;74;57;
49914;PMS5003;35806;47.958;13.158;2023-02-28T05:58:42;73;58;
49914;PMS5003;35806;47.958;13.158;2023-02-28T06:01:30;75;63;
49914;PMS5003;35806;47.958;13.158;2023-02-28T06:04:01;77;67;
49914;PMS5003;35806;47.958;13.158;2023-02-28T06:06:29;72;64;
49914;PMS5003;35806;47.958;13.158;2023-02-28T06:09:03;75;63;
49914;PMS5003;35806;47.958;13.158;2023-02-28T06:11:31;72;58;
49914;PMS5003;35806;47.958;13.158;2023-02-28T06:14:00;78;63;
49914;PMS5003;35806;47.958;13.158;2023-02-28T06:16:28;85;67;
49914;PMS5003;35806;47.958;13.158;2023-02-28T06:18:57;67;61;
49914;PMS5003;35806;47.958;13.158;2023-02-28T06:21:25;67;58;
49914;PMS5003;35806;47.958;13.158;2023-02-28T06:23:53;73;61;
49914;PMS5003;35806;47.958;13.158;2023-02-28T06:26:22;77;69;
49914;PMS5003;35806;47.958;13.158;2023-02-28T06:28:49;68;58;
49914;PMS5003;35806;47.958;13.158;2023-02-28T06:31:17;90;77;
49914;PMS5003;35806;47.958;13.158;2023-02-28T06:33:46;81;69;
49914;PMS5003;35806;47.958;13.158;2023-02-28T06:36:14;78;67;
49914;PMS5003;35806;47.958;13.158;2023-02-28T06:38:42;69;58;
49914;PMS5003;35806;47.958;13.158;2023-02-28T06:41:10;71;63;
49914;PMS5003;35806;47.958;13.158;2023-02-28T06:43:39;79;68;
49914;PMS5003;35806;47.958;13.158;2023-02-28T06:46:10;72;58;
49914;PMS5003;35806;47.958;13.158;2023-02-28T06:48:39;74;65;
49914;PMS5003;35806;47.958;13.158;2023-02-28T06:51:07;78;67;
49914;PMS5003;35806;47.958;13.158;2023-02-28T06:53:36;78;67;
49914;PMS5003;35806;47.958;13.158;2023-02-28T06:56:04;66;61;
49914;PMS5003;35806;47.958;13.158;2023-02-28T06:58:33;89;69;
49914;PMS5003;35806;47.958;13.158;2023-02-28T07:01:01;77;68;
49914;PMS5003;35806;47.958;13.158;2023-02-28T07:03:29;77;66;
49914;PMS5003;35806;47.958;13.158;2023-02-28T07:05:57;77;64;
49914;PMS5003;35806;47.958;13.158;2023-02-28T07:08:25;69;59;
49914;PMS5003;35806;47.958;13.158;2023-02-28T07:10:53;65;56;
49914;PMS5003;35806;47.958;13.158;2023-02-28T07:13:21;59;53;
49914;PMS5003;35806;47.958;13.158;2023-02-28T07:15:53;75;60;
49914;PMS5003;35806;47.958;13.158;2023-02-28T07:18:22;76;63;
49914;PMS5003;35806;47.958;13.158;2023-02-28T07:20:50;63;57;
49914;PMS5003;35806;47.958;13.158;2023-02-28T07:23:22;70;67;
49914;PMS5003;35806;47.958;13.158;2023-02-28T07:25:50;64;57;
49914;PMS5003;35806;47.958;13.158;2023-02-28T07:28:19;74;62;
49914;PMS5003;35806;47.958;13.158;2023-02-28T07:30:45;68;56;
49914;PMS5003;35806;47.958;13.158;2023-02-28T07:33:13;72;61;
49914;PMS5003;35806;47.958;13.158;2023-02-28T07:35:41;79;67;
49914;PMS5003;35806;47.958;13.158;2023-02-28T07:38:09;69;55;
49914;PMS5003;35806;47.958;13.158;2023-02-28T07:40:37;74;61;
49914;PMS5003;35806;47.958;13.158;2023-02-28T07:43:04;65;57;
49914;PMS5003;35806;47.958;13.158;2023-02-28T07:45:32;70;55;
49914;PMS5003;35806;47.958;13.158;2023-02-28T07:48:00;66;62;
49914;PMS5003;35806;47.958;13.158;2023-02-28T07:50:28;76;63;
49914;PMS5003;35806;47.958;13.158;2023-02-28T07:52:55;79;65;
49914;PMS5003;35806;47.958;13.158;2023-02-28T07:55:22;72;62;
49914;PMS5003;35806;47.958;13.158;2023-02-28T07:57:50;73;64;
49914;PMS5003;35806;47.958;13.158;2023-02-28T08:00:18;70;60;
49914;PMS5003;35806;47.958;13.158;2023-02-28T08:02:45;61;56;
49914;PMS5003;35806;47.958;13.158;2023-02-28T08:05:12;63;54;
49914;PMS5003;35806;47.958;13.158;2023-02-28T08:07:39;62;50;
49914;PMS5003;35806;47.958;13.158;2023-02-28T08:10:07;62;54;
49914;PMS5003;35806;47.958;13.158;2023-02-28T08:12:35;60;55;
49914;PMS5003;35806;47.958;13.158;2023-02-28T08:15:03;74;56;
49914;PMS5003;35806;47.958;13.158;2023-02-28T08:17:31;55;47;
49914;PMS5003;35806;47.958;13.158;2023-02-28T08:19:59;65;52;
49914;PMS5003;35806;47.958;13.158;2023-02-28T08:22:26;61;57;
49914;PMS5003;35806;47.958;13.158;2023-02-28T08:24:53;60;48;
49914;PMS5003;35806;47.958;13.158;2023-02-28T08:27:21;62;55;
49914;PMS5003;35806;47.958;13.158;2023-02-28T08:29:49;61;52;
49914;PMS5003;35806;47.958;13.158;2023-02-28T08:32:17;71;63;
49914;PMS5003;35806;47.958;13.158;2023-02-28T08:34:44;63;55;
49914;PMS5003;35806;47.958;13.158;2023-02-28T08:37:12;59;55;
49914;PMS5003;35806;47.958;13.158;2023-02-28T08:39:39;56;54;
49914;PMS5003;35806;47.958;13.158;2023-02-28T08:42:07;58;49;
49914;PMS5003;35806;47.958;13.158;2023-02-28T08:44:34;63;57;
49914;PMS5003;35806;47.958;13.158;2023-02-28T08:47:01;49;47;
49914;PMS5003;35806;47.958;13.158;2023-02-28T08:49:29;57;51;
49914;PMS5003;35806;47.958;13.158;2023-02-28T08:51:56;56;49;
49914;PMS5003;35806;47.958;13.158;2023-02-28T08:54:24;69;56;
49914;PMS5003;35806;47.958;13.158;2023-02-28T08:56:52;54;47;
49914;PMS5003;35806;47.958;13.158;2023-02-28T08:59:19;64;53;
49914;PMS5003;35806;47.958;13.158;2023-02-28T09:01:46;67;58;
49914;PMS5003;35806;47.958;13.158;2023-02-28T09:04:13;60;57;
49914;PMS5003;35806;47.958;13.158;2023-02-28T09:06:41;64;56;
49914;PMS5003;35806;47.958;13.158;2023-02-28T09:09:09;65;56;
49914;PMS5003;35806;47.958;13.158;2023-02-28T09:11:36;64;53;
49914;PMS5003;35806;47.958;13.158;2023-02-28T09:14:03;56;49;
49914;PMS5003;35806;47.958;13.158;2023-02-28T09:16:31;60;54;
49914;PMS5003;35806;47.958;13.158;2023-02-28T09:19:00;62;55;
49914;PMS5003;35806;47.958;13.158;2023-02-28T09:21:27;67;51;
49914;PMS5003;35806;47.958;13.158;2023-02-28T09:23:55;53;46;
49914;PMS5003;35806;47.958;13.158;2023-02-28T09:26:22;62;54;
49914;PMS5003;35806;47.958;13.158;2023-02-28T09:28:52;58;50;
49914;PMS5003;35806;47.958;13.158;2023-02-28T09:31:21;62;49;
49914;PMS5003;35806;47.958;13.158;2023-02-28T09:33:50;63;53;
49914;PMS5003;35806;47.958;13.158;2023-02-28T09:36:19;55;50;
49914;PMS5003;35806;47.958;13.158;2023-02-28T09:38:47;56;52;
49914;PMS5003;35806;47.958;13.158;2023-02-28T09:41:18;57;51;
49914;PMS5003;35806;47.958;13.158;2023-02-28T09:43:49;52;47;
49914;PMS5003;35806;47.958;13.158;2023-02-28T09:46:27;58;53;
49914;PMS5003;35806;47.958;13.158;2023-02-28T09:49:00;55;49;
49914;PMS5003;35806;47.958;13.158;2023-02-28T09:51:34;56;52;
49914;PMS5003;35806;47.958;13.158;2023-02-28T09:54:10;51;47;
49914;PMS5003;35806;47.958;13.158;2023-02-28T09:56:40;57;56;
49914;PMS5003;35806;47.958;13.158;2023-02-28T09:59:11;58;49;
49914;PMS5003;35806;47.958;13.158;2023-02-28T10:01:46;64;53;
49914;PMS5003;35806;47.958;13.158;2023-02-28T10:04:26;60;55;
49914;PMS5003;35806;47.958;13.158;2023-02-28T10:07:03;49;43;
49914;PMS5003;35806;47.958;13.158;2023-02-28T10:09:42;54;48;
49914;PMS5003;35806;47.958;13.158;2023-02-28T10:12:11;57;54;
49914;PMS5003;35806;47.958;13.158;2023-02-28T10:14:42;50;48;
49914;PMS5003;35806;47.958;13.158;2023-02-28T10:17:13;58;50;
49914;PMS5003;35806;47.958;13.158;2023-02-28T10:19:47;55;50;
49914;PMS5003;35806;47.958;13.158;2023-02-28T10:22:23;51;46;
49914;PMS5003;35806;47.958;13.158;2023-02-28T10:24:55;58;51;
49914;PMS5003;35806;47.958;13.158;2023-02-28T10:27:29;51;50;
49914;PMS5003;35806;47.958;13.158;2023-02-28T10:29:58;59;52;
49914;PMS5003;35806;47.958;13.158;2023-02-28T10:32:27;52;46;
49914;PMS5003;35806;47.958;13.158;2023-02-28T10:34:59;52;49;
49914;PMS5003;35806;47.958;13.158;2023-02-28T10:37:33;54;51;
49914;PMS5003;35806;47.958;13.158;2023-02-28T10:40:04;54;44;
49914;PMS5003;35806;47.958;13.158;2023-02-28T10:42:33;49;46;
49914;PMS5003;35806;47.958;13.158;2023-02-28T10:45:06;52;51;
49914;PMS5003;35806;47.958;13.158;2023-02-28T10:47:40;56;50;
49914;PMS5003;35806;47.958;13.158;2023-02-28T10:50:34;56;49;
49914;PMS5003;35806;47.958;13.158;2023-02-28T10:53:10;51;48;
49914;PMS5003;35806;47.958;13.158;2023-02-28T10:55:55;52;51;
49914;PMS5003;35806;47.958;13.158;2023-02-28T10:58:30;55;47;
49914;PMS5003;35806;47.958;13.158;2023-02-28T11:01:12;51;48;
49914;PMS5003;35806;47.958;13.158;2023-02-28T11:03:41;60;51;
49914;PMS5003;35806;47.958;13.158;2023-02-28T11:06:12;55;52;
49914;PMS5003;35806;47.958;13.158;2023-02-28T11:08:44;62;59;
49914;PMS5003;35806;47.958;13.158;2023-02-28T11:11:14;48;43;
49914;PMS5003;35806;47.958;13.158;2023-02-28T11:14:02;49;46;
49914;PMS5003;35806;47.958;13.158;2023-02-28T11:16:32;47;45;
49914;PMS5003;35806;47.958;13.158;2023-02-28T11:19:01;44;40;
49914;PMS5003;35806;47.958;13.158;2023-02-28T11:21:32;51;46;
49914;PMS5003;35806;47.958;13.158;2023-02-28T11:24:03;52;46;
49914;PMS5003;35806;47.958;13.158;2023-02-28T11:26:39;51;46;
49914;PMS5003;35806;47.958;13.158;2023-02-28T11:29:10;54;46;
49914;PMS5003;35806;47.958;13.158;2023-02-28T11:31:43;63;52;
49914;PMS5003;35806;47.958;13.158;2023-02-28T11:34:26;57;52;
49914;PMS5003;35806;47.958;13.158;2023-02-28T11:36:59;53;46;
49914;PMS5003;35806;47.958;13.158;2023-02-28T11:39:27;57;51;
49914;PMS5003;35806;47.958;13.158;2023-02-28T11:42:00;47;46;
49914;PMS5003;35806;47.958;13.158;2023-02-28T11:44:40;49;47;
49914;PMS5003;35806;47.958;13.158;2023-02-28T11:47:21;53;48;
49914;PMS5003;35806;47.958;13.158;2023-02-28T11:50:04;64;59;
49914;PMS5003;35806;47.958;13.158;2023-02-28T11:52:44;59;51;
49914;PMS5003;35806;47.958;13.158;2023-02-28T11:55:19;55;54;
49914;PMS5003;35806;47.958;13.158;2023-02-28T11:58:03;51;47;
49914;PMS5003;35806;47.958;13.158;2023-02-28T12:00:48;54;48;
49914;PMS5003;35806;47.958;13.158;2023-02-28T12:03:27;52;48;
49914;PMS5003;35806;47.958;13.158;2023-02-28T12:06:08;63;54;
49914;PMS5003;35806;47.958;13.158;2023-02-28T12:08:44;56;53;
49914;PMS5003;35806;47.958;13.158;2023-02-28T12:11:21;51;47;
49914;PMS5003;35806;47.958;13.158;2023-02-28T12:14:03;47;42;
49914;PMS5003;35806;47.958;13.158;2023-02-28T12:16:48;50;49;
49914;PMS5003;35806;47.958;13.158;2023-02-28T12:19:29;50;46;
49914;PMS5003;35806;47.958;13.158;2023-02-28T12:22:11;52;43;
49914;PMS5003;35806;47.958;13.158;2023-02-28T12:24:53;45;41;
49914;PMS5003;35806;47.958;13.158;2023-02-28T12:27:32;53;51;
49914;PMS5003;35806;47.958;13.158;2023-02-28T12:30:04;52;47;
49914;PMS5003;35806;47.958;13.158;2023-02-28T12:32:40;51;46;
49914;PMS5003;35806;47.958;13.158;2023-02-28T12:35:12;41;40;
49914;PMS5003;35806;47.958;13.158;2023-02-28T12:37:44;46;45;
49914;PMS5003;35806;47.958;13.158;2023-02-28T12:40:17;52;45;
49914;PMS5003;35806;47.958;13.158;2023-02-28T12:42:48;44;37;
49914;PMS5003;35806;47.958;13.158;2023-02-28T12:45:20;46;43;
49914;PMS5003;35806;47.958;13.158;2023-02-28T12:47:50;43;42;
49914;PMS5003;35806;47.958;13.158;2023-02-28T12:50:23;42;39;
49914;PMS5003;35806;47.958;13.158;2023-02-28T12:52:53;42;38;
49914;PMS5003;35806;47.958;13.158;2023-02-28T12:55:28;42;40;
49914;PMS5003;35806;47.958;13.158;2023-02-28T12:58:11;50;39;
49914;PMS5003;35806;47.958;13.158;2023-02-28T13:00:49;39;35;
49914;PMS5003;35806;47.958;13.158;2023-02-28T13:03:38;43;39;
49914;PMS5003;35806;47.958;13.158;2023-02-28T13:06:20;48;39;
49914;PMS5003;35806;47.958;13.158;2023-02-28T13:09:02;43;41;
49914;PMS5003;35806;47.958;13.158;2023-02-28T13:11:38;40;38;
49914;PMS5003;35806;47.958;13.158;2023-02-28T13:14:18;45;41;
49914;PMS5003;35806;47.958;13.158;2023-02-28T13:16:51;38;36;
49914;PMS5003;35806;47.958;13.158;2023-02-28T13:19:23;49;45;
49914;PMS5003;35806;47.958;13.158;2023-02-28T13:21:53;39;35;
49914;PMS5003;35806;47.958;13.158;2023-02-28T13:24:48;41;38;
49914;PMS5003;35806;47.958;13.158;2023-02-28T13:27:23;51;42;
49914;PMS5003;35806;47.958;13.158;2023-02-28T13:29:59;46;43;
49914;PMS5003;35806;47.958;13.158;2023-02-28T13:32:29;46;45;
49914;PMS5003;35806;47.958;13.158;2023-02-28T13:35:35;43;43;
49914;PMS5003;35806;47.958;13.158;2023-02-28T13:38:37;37;35;
49914;PMS5003;35806;47.958;13.158;2023-02-28T13:43:18;51;45;
49914;PMS5003;35806;47.958;13.158;2023-02-28T13:46:17;45;42;
49914;PMS5003;35806;47.958;13.158;2023-02-28T13:48:44;46;41;
49914;PMS5003;35806;47.958;13.158;2023-02-28T13:51:44;47;45;
49914;PMS5003;35806;47.958;13.158;2023-02-28T13:54:18;36;35;
49914;PMS5003;35806;47.958;13.158;2023-02-28T13:57:04;42;37;
49914;PMS5003;35806;47.958;13.158;2023-02-28T13:59:45;42;41;
49914;PMS5003;35806;47.958;13.158;2023-02-28T14:02:31;39;36;
49914;PMS5003;35806;47.958;13.158;2023-02-28T14:05:13;37;34;
49914;PMS5003;35806;47.958;13.158;2023-02-28T14:07:44;37;35;
49914;PMS5003;35806;47.958;13.158;2023-02-28T14:10:23;44;41;
49914;PMS5003;35806;47.958;13.158;2023-02-28T14:12:59;46;42;
49914;PMS5003;35806;47.958;13.158;2023-02-28T14:15:57;40;37;
49914;PMS5003;35806;47.958;13.158;2023-02-28T14:18:28;39;37;
49914;PMS5003;35806;47.958;13.158;2023-02-28T14:20:59;42;38;
49914;PMS5003;35806;47.958;13.158;2023-02-28T14:23:39;43;42;
49914;PMS5003;35806;47.958;13.158;2023-02-28T14:26:28;43;42;
49914;PMS5003;35806;47.958;13.158;2023-02-28T14:29:16;48;40;
49914;PMS5003;35806;47.958;13.158;2023-02-28T14:31:58;44;41;
49914;PMS5003;35806;47.958;13.158;2023-02-28T14:34:34;45;41;
49914;PMS5003;35806;47.958;13.158;2023-02-28T14:37:09;49;42;
49914;PMS5003;35806;47.958;13.158;2023-02-28T14:39:41;41;38;
49914;PMS5003;35806;47.958;13.158;2023-02-28T14:42:33;43;38;
49914;PMS5003;35806;47.958;13.158;2023-02-28T14:45:02;50;46;
49914;PMS5003;35806;47.958;13.158;2023-02-28T14:47:31;49;46;
49914;PMS5003;35806;47.958;13.158;2023-02-28T14:50:00;40;40;
49914;PMS5003;35806;47.958;13.158;2023-02-28T14:52:31;47;41;
49914;PMS5003;35806;47.958;13.158;2023-02-28T14:55:00;41;35;
49914;PMS5003;35806;47.958;13.158;2023-02-28T14:57:31;41;36;
49914;PMS5003;35806;47.958;13.158;2023-02-28T15:00:02;46;43;
49914;PMS5003;35806;47.958;13.158;2023-02-28T15:02:34;49;45;
49914;PMS5003;35806;47.958;13.158;2023-02-28T15:05:15;46;41;
49914;PMS5003;35806;47.958;13.158;2023-02-28T15:07:49;48;46;
49914;PMS5003;35806;47.958;13.158;2023-02-28T15:10:31;48;42;
49914;PMS5003;35806;47.958;13.158;2023-02-28T15:13:00;45;43;
49914;PMS5003;35806;47.958;13.158;2023-02-28T15:15:34;40;39;
49914;PMS5003;35806;47.958;13.158;2023-02-28T15:18:07;47;42;
49914;PMS5003;35806;47.958;13.158;2023-02-28T15:20:42;47;41;
49914;PMS5003;35806;47.958;13.158;2023-02-28T15:23:12;41;40;
49914;PMS5003;35806;47.958;13.158;2023-02-28T15:25:40;44;38;
49914;PMS5003;35806;47.958;13.158;2023-02-28T15:28:11;44;41;
49914;PMS5003;35806;47.958;13.158;2023-02-28T15:30:54;44;39;
49914;PMS5003;35806;47.958;13.158;2023-02-28T15:33:24;42;38;
49914;PMS5003;35806;47.958;13.158;2023-02-28T15:36:03;44;39;
49914;PMS5003;35806;47.958;13.158;2023-02-28T15:38:34;44;39;
49914;PMS5003;35806;47.958;13.158;2023-02-28T15:41:02;43;37;
49914;PMS5003;35806;47.958;13.158;2023-02-28T15:43:31;44;38;
49914;PMS5003;35806;47.958;13.158;2023-02-28T15:46:00;44;40;
49914;PMS5003;35806;47.958;13.158;2023-02-28T15:48:29;56;45;
49914;PMS5003;35806;47.958;13.158;2023-02-28T15:51:01;43;39;
49914;PMS5003;35806;47.958;13.158;2023-02-28T15:53:33;53;44;
49914;PMS5003;35806;47.958;13.158;2023-02-28T15:56:03;54;48;
49914;PMS5003;35806;47.958;13.158;2023-02-28T15:58:33;47;45;
49914;PMS5003;35806;47.958;13.158;2023-02-28T16:01:04;44;40;
49914;PMS5003;35806;47.958;13.158;2023-02-28T16:03:46;41;38;
49914;PMS5003;35806;47.958;13.158;2023-02-28T16:06:33;50;44;
49914;PMS5003;35806;47.958;13.158;2023-02-28T16:09:05;44;39;
49914;PMS5003;35806;47.958;13.158;2023-02-28T16:11:37;48;45;
49914;PMS5003;35806;47.958;13.158;2023-02-28T16:14:08;48;45;
49914;PMS5003;35806;47.958;13.158;2023-02-28T16:16:42;42;38;
49914;PMS5003;35806;47.958;13.158;2023-02-28T16:19:10;46;46;
49914;PMS5003;35806;47.958;13.158;2023-02-28T16:21:38;50;45;
49914;PMS5003;35806;47.958;13.158;2023-02-28T16:24:05;47;42;
49914;PMS5003;35806;47.958;13.158;2023-02-28T16:26:33;78;69;
49914;PMS5003;35806;47.958;13.158;2023-02-28T16:29:01;67;61;
49914;PMS5003;35806;47.958;13.158;2023-02-28T16:31:29;53;45;
49914;PMS5003;35806;47.958;13.158;2023-02-28T16:33:58;42;40;
49914;PMS5003;35806;47.958;13.158;2023-02-28T16:36:26;51;43;
49914;PMS5003;35806;47.958;13.158;2023-02-28T16:38:55;44;40;
49914;PMS5003;35806;47.958;13.158;2023-02-28T16:41:23;49;45;
49914;PMS5003;35806;47.958;13.158;2023-02-28T16:43:53;43;40;
49914;PMS5003;35806;47.958;13.158;2023-02-28T16:46:30;45;44;
49914;PMS5003;35806;47.958;13.158;2023-02-28T16:49:01;50;40;